createdAt,value
2023-05-19T00:01:16.996Z,100343.81
2023-05-19T00:03:54.855Z,100343.91
2023-05-19T00:06:27.041Z,100344.19
2023-05-19T00:08:58.993Z,100338.91
2023-05-19T00:11:27.220Z,100345.94
2023-05-19T00:14:00.468Z,100345.31
2023-05-19T00:16:28.888Z,100337.34
2023-05-19T00:18:58.503Z,100337.50
2023-05-19T00:21:25.375Z,100329.84
2023-05-19T00:23:52.465Z,100335.94
2023-05-19T00:26:19.365Z,100326.66
2023-05-19T00:28:46.191Z,100329.72
2023-05-19T00:31:13.033Z,100323.53
2023-05-19T00:33:39.832Z,100324.47
2023-05-19T00:36:07.059Z,100322.06
2023-05-19T00:38:35.977Z,100327.44
2023-05-19T00:41:04.092Z,100319.16
2023-05-19T00:43:31.407Z,100317.66
2023-05-19T00:45:58.332Z,100320.88
2023-05-19T00:48:26.580Z,100330.00
2023-05-19T00:50:56.334Z,100328.97
2023-05-19T00:53:24.073Z,100318.84
2023-05-19T00:55:50.868Z,100315.91
2023-05-19T00:58:18.750Z,100317.78
2023-05-19T01:00:46.279Z,100316.69
2023-05-19T01:03:13.332Z,100311.28
2023-05-19T01:05:53.923Z,100314.16
2023-05-19T01:08:20.830Z,100317.06
2023-05-19T01:10:47.689Z,100318.75
2023-05-19T01:13:15.010Z,100316.34
2023-05-19T01:15:53.837Z,100312.53
2023-05-19T01:18:29.533Z,100318.97
2023-05-19T01:21:27.487Z,100315.59
2023-05-19T01:24:39.497Z,100317.84
2023-05-19T01:27:27.674Z,100306.16
2023-05-19T01:30:24.057Z,100310.84
2023-05-19T01:32:53.675Z,100316.59
2023-05-19T01:35:24.070Z,100318.44
2023-05-19T01:37:55.304Z,100324.75
2023-05-19T01:40:23.805Z,100314.00
2023-05-19T01:42:55.598Z,100316.06
2023-05-19T01:45:25.336Z,100308.56
2023-05-19T01:47:55.831Z,100310.72
2023-05-19T01:50:23.310Z,100308.91
2023-05-19T01:52:50.321Z,100313.59
2023-05-19T01:55:17.664Z,100313.72
2023-05-19T01:57:51.448Z,100310.97
2023-05-19T02:00:55.718Z,100305.13
2023-05-19T02:03:29.136Z,100300.69
2023-05-19T02:06:15.230Z,100298.31
2023-05-19T02:08:51.099Z,100296.88
2023-05-19T02:11:38.120Z,100302.97
2023-05-19T02:14:26.360Z,100292.25
2023-05-19T02:16:54.227Z,100292.34
2023-05-19T02:19:29.607Z,100288.91
2023-05-19T02:21:56.784Z,100294.56
2023-05-19T02:24:23.765Z,100300.78
2023-05-19T02:26:52.364Z,100297.72
2023-05-19T02:29:20.070Z,100307.50
2023-05-19T02:31:47.368Z,100299.31
2023-05-19T02:34:14.303Z,100296.88
2023-05-19T02:36:43.394Z,100298.78
2023-05-19T02:39:11.528Z,100302.00
2023-05-19T02:41:39.081Z,100297.72
2023-05-19T02:44:06.005Z,100304.03
2023-05-19T02:46:32.942Z,100300.16
2023-05-19T02:49:00.189Z,100301.66
2023-05-19T02:51:26.972Z,100291.47
2023-05-19T02:53:53.802Z,100305.97
2023-05-19T02:56:21.567Z,100300.00
2023-05-19T02:58:48.449Z,100295.09
2023-05-19T03:01:15.947Z,100290.75
2023-05-19T03:03:42.881Z,100296.16
2023-05-19T03:06:09.777Z,100291.09
2023-05-19T03:08:36.626Z,100282.63
2023-05-19T03:11:04.041Z,100290.31
2023-05-19T03:13:30.851Z,100285.31
2023-05-19T03:15:59.357Z,100283.88
2023-05-19T03:18:26.894Z,100292.25
2023-05-19T03:20:54.332Z,100288.28
2023-05-19T03:23:24.198Z,100289.59
2023-05-19T03:25:51.192Z,100286.81
2023-05-19T03:28:17.977Z,100285.25
2023-05-19T03:30:44.953Z,100285.31
2023-05-19T03:33:12.521Z,100282.56
2023-05-19T03:35:39.441Z,100277.53
2023-05-19T03:38:06.283Z,100280.03
2023-05-19T03:40:33.321Z,100288.84
2023-05-19T03:43:01.328Z,100282.22
2023-05-19T03:45:28.744Z,100292.59
2023-05-19T03:47:55.810Z,100295.94
2023-05-19T03:50:23.175Z,100288.06
2023-05-19T03:52:50.005Z,100287.44
2023-05-19T03:55:16.858Z,100290.56
2023-05-19T03:57:44.631Z,100286.16
2023-05-19T04:00:12.551Z,100286.34
2023-05-19T04:02:39.896Z,100286.06
2023-05-19T04:05:07.434Z,100290.03
2023-05-19T04:07:34.242Z,100291.72
2023-05-19T04:10:01.187Z,100293.38
2023-05-19T04:12:28.407Z,100294.03
2023-05-19T04:14:55.161Z,100289.19
2023-05-19T04:17:23.930Z,100290.88
2023-05-19T04:19:51.251Z,100285.50
2023-05-19T04:22:18.006Z,100284.41
2023-05-19T04:24:45.041Z,100294.88
2023-05-19T04:27:12.488Z,100301.19
2023-05-19T04:29:41.028Z,100291.94
2023-05-19T04:32:08.550Z,100307.50
2023-05-19T04:34:35.746Z,100307.38
2023-05-19T04:37:02.902Z,100312.03
2023-05-19T04:39:29.703Z,100314.63
2023-05-19T04:41:56.928Z,100308.53
2023-05-19T04:44:23.786Z,100312.97
2023-05-19T04:46:54.638Z,100315.00
2023-05-19T04:49:21.534Z,100313.53
2023-05-19T04:51:51.534Z,100308.25
2023-05-19T04:54:19.517Z,100306.06
2023-05-19T04:56:46.484Z,100305.97
2023-05-19T04:59:13.301Z,100302.81
2023-05-19T05:01:41.208Z,100301.38
2023-05-19T05:04:08.196Z,100306.63
2023-05-19T05:06:35.046Z,100300.69
2023-05-19T05:09:04.220Z,100292.09
2023-05-19T05:11:31.292Z,100298.09
2023-05-19T05:13:58.515Z,100297.59
2023-05-19T05:16:26.128Z,100293.50
2023-05-19T05:18:53.413Z,100299.72
2023-05-19T05:21:20.758Z,100305.81
2023-05-19T05:23:47.843Z,100299.97
2023-05-19T05:26:23.365Z,100295.19
2023-05-19T05:28:50.634Z,100294.28
2023-05-19T05:31:17.638Z,100288.41
2023-05-19T05:33:44.910Z,100290.91
2023-05-19T05:36:11.810Z,100291.31
2023-05-19T05:38:38.707Z,100289.94
2023-05-19T05:41:05.514Z,100291.69
2023-05-19T05:43:32.317Z,100288.03
2023-05-19T05:45:59.141Z,100289.00
2023-05-19T05:48:26.598Z,100293.31
2023-05-19T05:50:54.813Z,100295.44
2023-05-19T05:53:22.165Z,100292.75
2023-05-19T05:55:49.582Z,100291.41
2023-05-19T05:58:17.236Z,100292.94
2023-05-19T06:00:44.248Z,100287.91
2023-05-19T06:03:11.807Z,100278.81
2023-05-19T06:05:38.950Z,100277.28
2023-05-19T06:08:06.268Z,100283.63
2023-05-19T06:10:33.512Z,100279.44
2023-05-19T06:13:00.458Z,100276.47
2023-05-19T06:15:27.353Z,100273.97
2023-05-19T06:17:54.940Z,100270.25
2023-05-19T06:20:22.163Z,100276.09
2023-05-19T06:22:49.002Z,100271.72
2023-05-19T06:25:16.019Z,100269.25
2023-05-19T06:27:42.876Z,100270.28
2023-05-19T06:30:10.076Z,100263.44
2023-05-19T06:32:36.855Z,100262.94
2023-05-19T06:35:03.904Z,100266.44
2023-05-19T06:37:30.726Z,100264.81
2023-05-19T06:39:57.743Z,100262.25
2023-05-19T06:42:25.597Z,100265.16
2023-05-19T06:44:53.564Z,100278.88
2023-05-19T06:47:20.390Z,100271.28
2023-05-19T06:49:51.293Z,100274.78
2023-05-19T06:52:18.388Z,100273.69
2023-05-19T06:54:45.364Z,100272.47
2023-05-19T06:57:12.225Z,100274.47
2023-05-19T06:59:41.168Z,100279.78
2023-05-19T07:02:08.318Z,100276.53
2023-05-19T07:04:35.957Z,100268.38
2023-05-19T07:07:03.264Z,100271.28
2023-05-19T07:09:30.236Z,100270.50
2023-05-19T07:11:57.097Z,100261.41
2023-05-19T07:14:23.924Z,100263.41
2023-05-19T07:16:50.896Z,100266.75
2023-05-19T07:19:20.048Z,100263.22
2023-05-19T07:21:48.087Z,100267.31
2023-05-19T07:24:14.871Z,100260.97
2023-05-19T07:26:42.886Z,100260.28
2023-05-19T07:29:09.715Z,100265.91
2023-05-19T07:31:36.596Z,100263.84
2023-05-19T07:34:04.062Z,100260.97
2023-05-19T07:36:31.550Z,100259.16
2023-05-19T07:38:58.379Z,100258.19
2023-05-19T07:41:25.258Z,100248.78
2023-05-19T07:43:52.032Z,100241.78
2023-05-19T07:46:18.914Z,100246.34
2023-05-19T07:48:45.931Z,100246.44
2023-05-19T07:51:13.159Z,100236.50
2023-05-19T07:53:39.940Z,100239.25
2023-05-19T07:56:06.855Z,100236.31
2023-05-19T07:58:33.667Z,100239.72
2023-05-19T08:01:00.983Z,100227.09
2023-05-19T08:03:27.986Z,100236.94
2023-05-19T08:05:54.968Z,100230.03
2023-05-19T08:08:22.189Z,100233.78
2023-05-19T08:10:48.977Z,100233.94
2023-05-19T08:13:15.849Z,100225.06
2023-05-19T08:15:43.042Z,100227.47
2023-05-19T08:18:09.933Z,100232.25
2023-05-19T08:20:36.996Z,100227.56
2023-05-19T08:23:03.879Z,100216.50
2023-05-19T08:25:30.648Z,100212.13
2023-05-19T08:27:57.595Z,100217.44
2023-05-19T08:30:24.519Z,100216.28
2023-05-19T08:32:51.431Z,100210.34
2023-05-19T08:35:18.264Z,100212.88
2023-05-19T08:37:45.141Z,100204.03
2023-05-19T08:40:17.356Z,100203.00
2023-05-19T08:42:48.195Z,100203.50
2023-05-19T08:45:15.326Z,100191.31
2023-05-19T08:47:42.778Z,100196.50
2023-05-19T08:50:13.198Z,100186.22
2023-05-19T08:52:49.467Z,100196.38
2023-05-19T08:56:01.733Z,100190.16
2023-05-19T08:58:29.213Z,100185.03
2023-05-19T09:00:58.038Z,100185.41
2023-05-19T09:03:26.771Z,100182.38
2023-05-19T09:05:53.768Z,100184.72
2023-05-19T09:08:21.112Z,100189.03
2023-05-19T09:10:47.940Z,100186.09
2023-05-19T09:13:16.102Z,100184.34
2023-05-19T09:15:45.769Z,100187.22
2023-05-19T09:18:15.292Z,100183.06
2023-05-19T09:20:44.021Z,100187.22
2023-05-19T09:23:16.620Z,100176.09
2023-05-19T09:25:51.149Z,100172.81
2023-05-19T09:28:25.568Z,100174.06
2023-05-19T09:31:05.285Z,100168.78
2023-05-19T09:33:34.651Z,100155.97
2023-05-19T09:36:01.958Z,100175.38
2023-05-19T09:38:28.789Z,100162.09
2023-05-19T09:40:59.882Z,100170.66
2023-05-19T09:43:31.050Z,100167.53
2023-05-19T09:46:04.420Z,100166.03
2023-05-19T09:48:31.336Z,100171.50
2023-05-19T09:50:59.109Z,100168.84
2023-05-19T09:53:26.215Z,100170.06
2023-05-19T09:55:58.113Z,100165.66
2023-05-19T09:58:26.600Z,100169.47
2023-05-19T10:00:57.642Z,100163.22
2023-05-19T10:03:25.797Z,100164.47
2023-05-19T10:05:53.862Z,100155.47
2023-05-19T10:08:21.804Z,100161.53
2023-05-19T10:10:48.769Z,100153.63
2023-05-19T10:13:16.930Z,100158.44
2023-05-19T10:15:57.475Z,100151.91
2023-05-19T10:18:27.331Z,100154.31
2023-05-19T10:20:54.669Z,100151.63
2023-05-19T10:23:22.704Z,100157.09
2023-05-19T10:25:52.612Z,100154.34
2023-05-19T10:28:23.845Z,100153.97
2023-05-19T10:30:54.933Z,100144.31
2023-05-19T10:33:29.581Z,100145.06
2023-05-19T10:36:02.938Z,100142.41
2023-05-19T10:38:39.072Z,100142.97
2023-05-19T10:41:47.343Z,100149.97
2023-05-19T10:44:14.330Z,100143.06
2023-05-19T10:46:41.657Z,100136.97
2023-05-19T10:49:08.912Z,100140.06
2023-05-19T10:51:37.382Z,100131.19
2023-05-19T10:54:12.116Z,100133.81
2023-05-19T10:56:42.675Z,100128.03
2023-05-19T10:59:33.537Z,100136.00
2023-05-19T11:02:08.390Z,100135.13
2023-05-19T11:04:50.317Z,100128.22
2023-05-19T11:07:20.310Z,100132.69
2023-05-19T11:09:51.964Z,100133.34
2023-05-19T11:12:25.553Z,100122.25
2023-05-19T11:14:55.911Z,100125.03
2023-05-19T11:17:25.954Z,100133.03
2023-05-19T11:19:54.906Z,100127.78
2023-05-19T11:22:27.222Z,100119.31
2023-05-19T11:24:57.278Z,100114.28
2023-05-19T11:27:31.944Z,100119.75
2023-05-19T11:30:06.943Z,100113.34
2023-05-19T11:32:35.213Z,100107.53
2023-05-19T11:35:02.910Z,100107.03
2023-05-19T11:37:33.137Z,100106.47
2023-05-19T11:40:02.551Z,100101.63
2023-05-19T11:42:29.555Z,100108.81
2023-05-19T11:44:56.576Z,100101.75
2023-05-19T11:47:23.665Z,100098.47
2023-05-19T11:49:55.089Z,100094.75
2023-05-19T11:52:23.479Z,100089.56
2023-05-19T11:54:50.964Z,100086.66
2023-05-19T11:57:18.264Z,100079.28
2023-05-19T11:59:46.087Z,100083.50
2023-05-19T12:02:14.092Z,100084.91
2023-05-19T12:04:41.219Z,100089.50
2023-05-19T12:07:08.519Z,100082.09
2023-05-19T12:09:35.968Z,100083.25
2023-05-19T12:12:03.242Z,100077.78
2023-05-19T12:14:34.747Z,100078.28
2023-05-19T12:17:14.054Z,100071.38
2023-05-19T12:19:43.325Z,100069.84
2023-05-19T12:22:11.086Z,100068.34
2023-05-19T12:24:39.117Z,100061.09
2023-05-19T12:27:17.743Z,100058.16
2023-05-19T12:29:53.834Z,100053.47
2023-05-19T12:32:27.924Z,100056.25
2023-05-19T12:34:58.132Z,100055.94
2023-05-19T12:37:28.219Z,100058.91
2023-05-19T12:39:56.474Z,100048.28
2023-05-19T12:42:24.401Z,100049.41
2023-05-19T12:44:52.846Z,100039.69
2023-05-19T12:47:20.643Z,100041.00
2023-05-19T12:50:01.734Z,100047.31
2023-05-19T12:52:29.744Z,100048.03
2023-05-19T12:55:01.741Z,100043.38
2023-05-19T12:57:32.702Z,100042.69
2023-05-19T13:00:21.296Z,100039.09
2023-05-19T13:03:07.894Z,100033.13
2023-05-19T13:05:38.361Z,100024.00
2023-05-19T13:08:09.937Z,100024.56
2023-05-19T13:10:38.479Z,100028.81
2023-05-19T13:13:06.194Z,100022.34
2023-05-19T13:15:38.052Z,100023.78
2023-05-19T13:18:07.486Z,100012.84
2023-05-19T13:20:35.542Z,100018.84
2023-05-19T13:23:02.806Z,100022.44
2023-05-19T13:25:29.727Z,100012.75
2023-05-19T13:27:57.064Z,100011.75
2023-05-19T13:30:24.633Z,100012.84
2023-05-19T13:32:52.750Z,100021.25
2023-05-19T13:35:20.663Z,100010.09
2023-05-19T13:37:47.535Z,100006.19
2023-05-19T13:40:14.618Z,99996.50
2023-05-19T13:42:42.037Z,99997.16
2023-05-19T13:45:09.621Z,100005.75
2023-05-19T13:47:36.763Z,100000.94
2023-05-19T13:50:04.849Z,99999.75
2023-05-19T13:52:32.016Z,100005.00
2023-05-19T13:54:58.807Z,99993.63
2023-05-19T13:57:26.600Z,100003.03
2023-05-19T14:00:02.418Z,99996.63
2023-05-19T14:02:30.643Z,100001.16
2023-05-19T14:04:57.776Z,100003.78
2023-05-19T14:07:25.907Z,99982.25
2023-05-19T14:09:53.127Z,99999.03
2023-05-19T14:12:23.194Z,99997.00
2023-05-19T14:14:52.315Z,99990.50
2023-05-19T14:17:19.217Z,99994.41
2023-05-19T14:19:46.273Z,99987.38
2023-05-19T14:22:13.708Z,99982.00
2023-05-19T14:24:41.831Z,99983.47
2023-05-19T14:27:08.674Z,99984.47
2023-05-19T14:29:35.643Z,99977.91
2023-05-19T14:32:03.477Z,99978.03
2023-05-19T14:34:30.654Z,99969.09
2023-05-19T14:36:57.516Z,99973.00
2023-05-19T14:39:24.321Z,99975.19
2023-05-19T14:41:52.192Z,99974.16
2023-05-19T14:44:19.063Z,99960.59
2023-05-19T14:46:45.968Z,99965.84
2023-05-19T14:49:12.866Z,99971.34
2023-05-19T14:51:39.665Z,99956.69
2023-05-19T14:54:06.893Z,99969.81
2023-05-19T14:56:33.910Z,99966.28
2023-05-19T14:59:00.804Z,99957.34
2023-05-19T15:01:30.403Z,99945.91
2023-05-19T15:03:57.335Z,99955.97
2023-05-19T15:06:24.245Z,99948.56
2023-05-19T15:08:51.256Z,99953.00
2023-05-19T15:11:18.121Z,99953.84
2023-05-19T15:13:45.064Z,99949.34
2023-05-19T15:18:41.595Z,99945.69
2023-05-19T15:21:08.392Z,99937.88
2023-05-19T15:23:35.192Z,99948.09
2023-05-19T15:26:02.064Z,99932.69
2023-05-19T15:28:29.005Z,99927.19
2023-05-19T15:30:55.902Z,99926.50
2023-05-19T15:33:22.821Z,99933.81
2023-05-19T15:35:51.932Z,99929.72
2023-05-19T15:38:19.892Z,99924.69
2023-05-19T15:40:47.093Z,99925.47
2023-05-19T15:43:14.227Z,99936.97
2023-05-19T15:45:41.184Z,99929.03
2023-05-19T15:48:08.453Z,99928.66
2023-05-19T15:50:36.988Z,99923.84
2023-05-19T15:53:04.008Z,99922.28
2023-05-19T15:55:30.888Z,99925.34
2023-05-19T15:57:57.773Z,99918.19
2023-05-19T16:00:24.737Z,99923.75
2023-05-19T16:02:51.657Z,99919.16
2023-05-19T16:05:18.709Z,99903.00
2023-05-19T16:07:45.498Z,99911.31
2023-05-19T16:10:12.426Z,99909.97
2023-05-19T16:12:39.240Z,99912.78
2023-05-19T16:15:06.547Z,99907.88
2023-05-19T16:17:33.495Z,99905.66
2023-05-19T16:20:00.455Z,99911.16
2023-05-19T16:22:27.584Z,99913.88
2023-05-19T16:24:54.409Z,99901.22
2023-05-19T16:27:21.262Z,99909.16
2023-05-19T16:29:48.064Z,99904.97
2023-05-19T16:32:15.048Z,99907.16
2023-05-19T16:34:42.358Z,99907.00
2023-05-19T16:37:09.281Z,99915.25
2023-05-19T16:39:37.140Z,99903.00
2023-05-19T16:42:04.940Z,99896.50
2023-05-19T16:44:31.949Z,99904.09
2023-05-19T16:46:58.806Z,99900.66
2023-05-19T16:49:25.771Z,99904.19
2023-05-19T16:51:53.304Z,99895.84
2023-05-19T16:54:21.183Z,99901.47
2023-05-19T16:56:48.139Z,99894.00
2023-05-19T16:59:15.049Z,99893.84
2023-05-19T17:01:42.068Z,99889.59
2023-05-19T17:04:09.284Z,99887.19
2023-05-19T17:06:36.175Z,99889.44
2023-05-19T17:09:03.089Z,99894.81
2023-05-19T17:11:29.975Z,99889.78
2023-05-19T17:13:56.859Z,99880.91
2023-05-19T17:16:24.187Z,99881.16
2023-05-19T17:18:51.479Z,99888.22
2023-05-19T17:21:18.470Z,99889.97
2023-05-19T17:23:45.257Z,99880.50
2023-05-19T17:26:12.273Z,99874.03
2023-05-19T17:28:39.151Z,99881.38
2023-05-19T17:31:13.040Z,99886.56
2023-05-19T17:33:40.179Z,99881.31
2023-05-19T17:36:08.452Z,99878.94
2023-05-19T17:38:35.742Z,99884.41
2023-05-19T17:41:04.814Z,99881.09
2023-05-19T17:43:31.885Z,99880.59
2023-05-19T17:46:00.910Z,99889.66
2023-05-19T17:48:28.355Z,99890.31
2023-05-19T17:50:55.159Z,99893.25
2023-05-19T17:53:22.211Z,99884.44
2023-05-19T17:56:02.790Z,99884.19
2023-05-19T17:58:31.053Z,99890.25
2023-05-19T18:00:58.058Z,99888.19
2023-05-19T18:03:25.302Z,99893.84
2023-05-19T18:05:52.509Z,99906.41
2023-05-19T18:08:19.611Z,99896.19
2023-05-19T18:10:48.830Z,99897.88
2023-05-19T18:13:15.690Z,99901.94
2023-05-19T18:15:43.150Z,99900.75
2023-05-19T18:18:11.249Z,99899.94
2023-05-19T18:20:39.772Z,99911.16
2023-05-19T18:23:06.741Z,99908.25
2023-05-19T18:25:33.715Z,99906.00
2023-05-19T18:28:01.465Z,99903.75
2023-05-19T18:30:28.300Z,99903.75
2023-05-19T18:32:55.176Z,99902.53
2023-05-19T18:35:22.422Z,99911.78
2023-05-19T18:37:49.413Z,99906.22
2023-05-19T18:40:16.635Z,99901.91
2023-05-19T18:42:43.460Z,99908.19
2023-05-19T18:45:13.236Z,99907.25
2023-05-19T18:47:40.023Z,99906.16
2023-05-19T18:50:07.377Z,99897.91
2023-05-19T18:52:34.226Z,99903.75
2023-05-19T18:55:01.472Z,99903.94
2023-05-19T18:57:28.461Z,99900.13
2023-05-19T18:59:55.311Z,99908.50
2023-05-19T19:02:22.170Z,99906.28
2023-05-19T19:04:49.063Z,99913.22
2023-05-19T19:07:16.407Z,99907.13
2023-05-19T19:09:44.026Z,99901.00
2023-05-19T19:12:11.257Z,99909.44
2023-05-19T19:14:38.858Z,99908.78
2023-05-19T19:17:06.056Z,99908.47
2023-05-19T19:19:33.155Z,99914.31
2023-05-19T19:22:00.112Z,99917.53
2023-05-19T19:24:28.687Z,99921.81
2023-05-19T19:26:55.632Z,99925.19
2023-05-19T19:29:22.589Z,99926.75
2023-05-19T19:31:49.465Z,99929.03
2023-05-19T19:34:17.997Z,99927.63
2023-05-19T19:36:45.203Z,99930.28
2023-05-19T19:39:12.296Z,99926.84
2023-05-19T19:41:41.161Z,99933.13
2023-05-19T19:44:08.159Z,99941.19
2023-05-19T19:46:35.308Z,99950.41
2023-05-19T19:49:02.418Z,99943.47
2023-05-19T19:51:29.433Z,99943.47
2023-05-19T19:53:56.226Z,99949.13
2023-05-19T19:56:24.872Z,99952.34
2023-05-19T19:58:52.155Z,99943.63
2023-05-19T20:01:20.888Z,99953.69
2023-05-19T20:03:48.219Z,99946.81
2023-05-19T20:06:15.347Z,99953.81
2023-05-19T20:08:42.183Z,99946.72
2023-05-19T20:11:09.471Z,99955.94
2023-05-19T20:13:36.786Z,99948.38
2023-05-19T20:16:03.764Z,99946.03
2023-05-19T20:18:30.607Z,99945.56
2023-05-19T20:20:57.553Z,99952.78
2023-05-19T20:23:24.397Z,99957.63
2023-05-19T20:26:10.038Z,99951.00
2023-05-19T20:28:37.515Z,99962.13
2023-05-19T20:31:05.185Z,99963.78
2023-05-19T20:33:32.293Z,99967.47
2023-05-19T20:35:59.138Z,99959.31
2023-05-19T20:38:26.041Z,99956.00
2023-05-19T20:40:54.364Z,99957.06
2023-05-19T20:43:21.528Z,99951.06
2023-05-19T20:45:48.610Z,99953.19
2023-05-19T20:48:18.625Z,99945.28
2023-05-19T20:50:46.050Z,99946.81
2023-05-19T20:53:12.861Z,99952.47
2023-05-19T20:55:40.067Z,99954.63
2023-05-19T20:58:07.148Z,99945.88
2023-05-19T21:00:34.216Z,99952.38
2023-05-19T21:03:01.736Z,99947.16
2023-05-19T21:05:29.302Z,99945.19
2023-05-19T21:07:56.312Z,99950.63
2023-05-19T21:10:23.288Z,99957.84
2023-05-19T21:12:50.265Z,99951.56
2023-05-19T21:15:17.059Z,99959.59
2023-05-19T21:17:43.887Z,99948.97
2023-05-19T21:20:11.272Z,99950.88
2023-05-19T21:22:38.126Z,99956.31
2023-05-19T21:25:05.336Z,99957.25
2023-05-19T21:27:33.149Z,99954.75
2023-05-19T21:30:00.344Z,99953.94
2023-05-19T21:32:28.040Z,99950.97
2023-05-19T21:34:54.863Z,99958.78
2023-05-19T21:37:22.008Z,99958.31
2023-05-19T21:39:49.227Z,99953.94
2023-05-19T21:42:16.096Z,99950.63
2023-05-19T21:44:42.915Z,99954.44
2023-05-19T21:47:09.739Z,99958.66
2023-05-19T21:49:38.456Z,99958.28
2023-05-19T21:52:05.825Z,99958.28
2023-05-19T21:54:32.635Z,99961.25
2023-05-19T21:56:59.450Z,99956.88
2023-05-19T21:59:26.666Z,99954.16
2023-05-19T22:01:53.663Z,99955.47
2023-05-19T22:04:21.824Z,99959.47
2023-05-19T22:06:48.655Z,99962.06
2023-05-19T22:09:15.512Z,99963.13
2023-05-19T22:11:42.431Z,99960.78
2023-05-19T22:14:09.302Z,99968.78
2023-05-19T22:16:36.123Z,99971.38
2023-05-19T22:19:03.014Z,99967.81
2023-05-19T22:21:29.886Z,99966.28
2023-05-19T22:23:56.768Z,99967.19
2023-05-19T22:26:23.608Z,99959.75
2023-05-19T22:28:50.800Z,99961.28
2023-05-19T22:31:17.940Z,99956.19
2023-05-19T22:33:44.988Z,99957.13
2023-05-19T22:36:11.857Z,99953.22
2023-05-19T22:38:38.676Z,99957.28
2023-05-19T22:41:05.765Z,99970.25
2023-05-19T22:43:32.699Z,99960.34
2023-05-19T22:45:59.527Z,99960.34
2023-05-19T22:48:26.379Z,99955.84
2023-05-19T22:50:53.217Z,99960.66
2023-05-19T22:53:20.016Z,99953.84
2023-05-19T22:55:47.019Z,99951.00
2023-05-19T22:58:13.862Z,99951.09
2023-05-19T23:00:40.718Z,99943.88
2023-05-19T23:03:07.596Z,99949.97
2023-05-19T23:05:34.744Z,99945.09
2023-05-19T23:08:01.861Z,99941.78
2023-05-19T23:10:28.721Z,99941.66
2023-05-19T23:12:55.563Z,99948.63
2023-05-19T23:15:22.335Z,99950.13
2023-05-19T23:17:49.164Z,99947.88
2023-05-19T23:20:16.069Z,99945.00
2023-05-19T23:22:42.936Z,99946.66
2023-05-19T23:25:09.931Z,99936.75
2023-05-19T23:27:36.887Z,99938.41
2023-05-19T23:30:04.211Z,99938.53
2023-05-19T23:32:31.136Z,99933.56
2023-05-19T23:34:58.018Z,99934.56
2023-05-19T23:37:24.837Z,99933.28
2023-05-19T23:39:51.747Z,99929.53
2023-05-19T23:42:18.590Z,99931.19
2023-05-19T23:44:45.432Z,99933.28
2023-05-19T23:47:12.222Z,99928.31
2023-05-19T23:49:38.963Z,99926.66
2023-05-19T23:52:06.205Z,99928.91
2023-05-19T23:54:32.948Z,99940.19
2023-05-19T23:56:59.814Z,99936.28
2023-05-19T23:59:26.694Z,99934.66
